Pagina principale
METAR-TAF:

METAR-TAF

Aeroporti :

Madinat al-Kuwait, Kuwait

Aeroporto Internazionale del Kuwait

latitudine: 29-13N, longitudine: 047-59E, altezza: 55 m

Osservazione

Il bollettino è stato emesso 36 minuti fa, alle 01:00 UTC
Vento 3 kt da nord/nord-ovest
Temperature 15°C
Umidità 94%
Pressione 1010 hPa
Visibilità: 4000 m
foschia

METAR: OKBK 250100Z 34003KT 4000 BR NSC 15/14 Q1010 NOSIG

Ora: 04:36 (01:36 UTC)

Previsione

Il bollettino è stato emesso 2 ore e 51 minuti fa, alle 22:45 UTC
Previsione valida dal 25 alle 00 UTC al 26 alle 06 UTC
Vento 3 kt da direzioni variabili
Visibilità: 3000 m
foschia
Temporaneamente
dal 25 alle 00 UTC al 25 alle 05 UTC
Visibilità: 0500 m
nebbia
Evoluzione graduale
dal 25 alle 06 UTC al 25 alle 08 UTC
Visibilità: 7000 m
Cielo sereno

TAF: OKBK 242245Z 2500/2606 VRB03KT 3000 BR NSC TEMPO 2500/2505 0500 FG VV/// BECMG 2506/2508 7000 SKC

Osservazioni e previsioni meteorologiche di più di 4000 aeroporti (messaggi METAR e TAF).

Le stazioni disponibili sono rappresentate dai dischi gialli e rossi sulla carta.

Puntare il mouse per vedere il nome della stazione.

Clicca sopra per visualizzare le osservazioni e previsioni meteorologiche.

Per cambiare la mappa : fare clic sui pulsanti verdi con una croce nera per ingrandire, il pulsante verde con un trattino per diminuire, o sulla freccia verde per le mappe adiacenti.


METAR-TAF: